sensor_id;sensor_type;location;lat;lon;timestamp;P1;durP1;ratioP1;P2;durP2;ratioP2
20101;SDS011;10210;52.284;9.892;2024-01-10T00:01:39;21.37;;;8.50;;
20101;SDS011;10210;52.284;9.892;2024-01-10T00:04:05;22.53;;;9.10;;
20101;SDS011;10210;52.284;9.892;2024-01-10T00:06:30;21.07;;;9.03;;
20101;SDS011;10210;52.284;9.892;2024-01-10T00:08:56;24.23;;;9.00;;
20101;SDS011;10210;52.284;9.892;2024-01-10T00:11:22;21.83;;;8.57;;
20101;SDS011;10210;52.284;9.892;2024-01-10T00:13:47;22.10;;;8.77;;
20101;SDS011;10210;52.284;9.892;2024-01-10T00:16:13;23.07;;;8.83;;
20101;SDS011;10210;52.284;9.892;2024-01-10T00:18:39;23.13;;;8.53;;
20101;SDS011;10210;52.284;9.892;2024-01-10T00:21:05;25.10;;;9.73;;
20101;SDS011;10210;52.284;9.892;2024-01-10T00:23:32;21.50;;;8.87;;
20101;SDS011;10210;52.284;9.892;2024-01-10T00:25:58;23.30;;;9.43;;
20101;SDS011;10210;52.284;9.892;2024-01-10T00:28:25;21.43;;;9.33;;
20101;SDS011;10210;52.284;9.892;2024-01-10T00:30:51;22.03;;;8.67;;
20101;SDS011;10210;52.284;9.892;2024-01-10T00:33:17;22.23;;;8.17;;
20101;SDS011;10210;52.284;9.892;2024-01-10T00:35:43;22.47;;;8.60;;
20101;SDS011;10210;52.284;9.892;2024-01-10T00:38:10;20.93;;;8.43;;
20101;SDS011;10210;52.284;9.892;2024-01-10T00:40:36;20.57;;;7.67;;
20101;SDS011;10210;52.284;9.892;2024-01-10T00:43:02;20.13;;;7.90;;
20101;SDS011;10210;52.284;9.892;2024-01-10T00:45:29;21.83;;;8.13;;
20101;SDS011;10210;52.284;9.892;2024-01-10T00:47:54;19.97;;;8.00;;
20101;SDS011;10210;52.284;9.892;2024-01-10T00:50:20;21.40;;;8.03;;
20101;SDS011;10210;52.284;9.892;2024-01-10T00:52:46;20.63;;;8.17;;
20101;SDS011;10210;52.284;9.892;2024-01-10T00:55:12;17.23;;;7.00;;
20101;SDS011;10210;52.284;9.892;2024-01-10T00:57:37;21.93;;;7.90;;
20101;SDS011;10210;52.284;9.892;2024-01-10T01:00:04;20.77;;;7.90;;
20101;SDS011;10210;52.284;9.892;2024-01-10T01:02:32;22.03;;;8.30;;
20101;SDS011;10210;52.284;9.892;2024-01-10T01:04:58;19.20;;;7.80;;
20101;SDS011;10210;52.284;9.892;2024-01-10T01:07:24;21.07;;;7.70;;
20101;SDS011;10210;52.284;9.892;2024-01-10T01:09:49;20.37;;;7.87;;
20101;SDS011;10210;52.284;9.892;2024-01-10T01:12:15;19.70;;;7.80;;
20101;SDS011;10210;52.284;9.892;2024-01-10T01:14:41;18.93;;;7.33;;
20101;SDS011;10210;52.284;9.892;2024-01-10T01:17:06;17.70;;;7.07;;
20101;SDS011;10210;52.284;9.892;2024-01-10T01:19:32;21.20;;;7.30;;
20101;SDS011;10210;52.284;9.892;2024-01-10T01:21:58;19.97;;;7.60;;
20101;SDS011;10210;52.284;9.892;2024-01-10T01:24:23;19.53;;;7.80;;
20101;SDS011;10210;52.284;9.892;2024-01-10T01:26:49;19.13;;;7.33;;
20101;SDS011;10210;52.284;9.892;2024-01-10T01:29:15;20.50;;;7.50;;
20101;SDS011;10210;52.284;9.892;2024-01-10T01:31:41;17.33;;;6.93;;
20101;SDS011;10210;52.284;9.892;2024-01-10T01:34:06;20.23;;;8.20;;
20101;SDS011;10210;52.284;9.892;2024-01-10T01:36:32;20.43;;;7.57;;
20101;SDS011;10210;52.284;9.892;2024-01-10T01:38:58;20.87;;;8.53;;
20101;SDS011;10210;52.284;9.892;2024-01-10T01:41:23;22.17;;;9.07;;
20101;SDS011;10210;52.284;9.892;2024-01-10T01:43:49;21.73;;;7.70;;
20101;SDS011;10210;52.284;9.892;2024-01-10T01:46:14;19.10;;;7.23;;
20101;SDS011;10210;52.284;9.892;2024-01-10T01:48:40;20.03;;;7.53;;
20101;SDS011;10210;52.284;9.892;2024-01-10T01:51:07;18.30;;;7.03;;
20101;SDS011;10210;52.284;9.892;2024-01-10T01:53:37;18.77;;;7.17;;
20101;SDS011;10210;52.284;9.892;2024-01-10T01:56:05;17.60;;;7.23;;
20101;SDS011;10210;52.284;9.892;2024-01-10T01:58:33;17.73;;;7.10;;
20101;SDS011;10210;52.284;9.892;2024-01-10T02:01:01;19.80;;;7.47;;
20101;SDS011;10210;52.284;9.892;2024-01-10T02:03:29;21.43;;;8.63;;
20101;SDS011;10210;52.284;9.892;2024-01-10T02:05:57;18.80;;;7.23;;
20101;SDS011;10210;52.284;9.892;2024-01-10T02:08:23;17.47;;;6.90;;
20101;SDS011;10210;52.284;9.892;2024-01-10T02:10:48;17.50;;;7.13;;
20101;SDS011;10210;52.284;9.892;2024-01-10T02:13:14;18.83;;;7.07;;
20101;SDS011;10210;52.284;9.892;2024-01-10T02:15:41;19.50;;;7.47;;
20101;SDS011;10210;52.284;9.892;2024-01-10T02:18:08;22.27;;;8.73;;
20101;SDS011;10210;52.284;9.892;2024-01-10T02:20:37;19.50;;;8.13;;
20101;SDS011;10210;52.284;9.892;2024-01-10T02:23:03;22.03;;;7.63;;
20101;SDS011;10210;52.284;9.892;2024-01-10T02:25:29;18.40;;;7.30;;
20101;SDS011;10210;52.284;9.892;2024-01-10T02:27:55;18.30;;;7.13;;
20101;SDS011;10210;52.284;9.892;2024-01-10T02:30:20;19.13;;;7.07;;
20101;SDS011;10210;52.284;9.892;2024-01-10T02:32:46;22.33;;;7.87;;
20101;SDS011;10210;52.284;9.892;2024-01-10T02:35:12;19.23;;;7.63;;
20101;SDS011;10210;52.284;9.892;2024-01-10T02:37:37;20.03;;;7.50;;
20101;SDS011;10210;52.284;9.892;2024-01-10T02:40:03;22.03;;;8.67;;
20101;SDS011;10210;52.284;9.892;2024-01-10T02:42:30;20.97;;;8.07;;
20101;SDS011;10210;52.284;9.892;2024-01-10T02:44:57;21.47;;;7.43;;
20101;SDS011;10210;52.284;9.892;2024-01-10T02:47:22;19.17;;;7.87;;
20101;SDS011;10210;52.284;9.892;2024-01-10T02:49:48;22.90;;;8.60;;
20101;SDS011;10210;52.284;9.892;2024-01-10T02:52:13;19.60;;;8.10;;
20101;SDS011;10210;52.284;9.892;2024-01-10T02:54:39;20.13;;;8.00;;
20101;SDS011;10210;52.284;9.892;2024-01-10T02:57:05;17.70;;;7.30;;
20101;SDS011;10210;52.284;9.892;2024-01-10T02:59:30;21.07;;;8.67;;
20101;SDS011;10210;52.284;9.892;2024-01-10T03:01:56;20.30;;;7.97;;
20101;SDS011;10210;52.284;9.892;2024-01-10T03:04:22;20.73;;;7.90;;
20101;SDS011;10210;52.284;9.892;2024-01-10T03:06:47;20.13;;;7.73;;
20101;SDS011;10210;52.284;9.892;2024-01-10T03:09:13;19.70;;;8.40;;
20101;SDS011;10210;52.284;9.892;2024-01-10T03:11:39;19.17;;;8.20;;
20101;SDS011;10210;52.284;9.892;2024-01-10T03:14:08;19.13;;;8.23;;
20101;SDS011;10210;52.284;9.892;2024-01-10T03:16:35;20.27;;;7.67;;
20101;SDS011;10210;52.284;9.892;2024-01-10T03:19:02;19.90;;;8.40;;
20101;SDS011;10210;52.284;9.892;2024-01-10T03:21:28;21.17;;;7.77;;
20101;SDS011;10210;52.284;9.892;2024-01-10T03:23:58;20.07;;;7.93;;
20101;SDS011;10210;52.284;9.892;2024-01-10T03:26:26;22.70;;;8.70;;
20101;SDS011;10210;52.284;9.892;2024-01-10T03:28:53;23.93;;;9.10;;
20101;SDS011;10210;52.284;9.892;2024-01-10T03:31:19;20.73;;;8.17;;
20101;SDS011;10210;52.284;9.892;2024-01-10T03:33:45;25.23;;;9.53;;
20101;SDS011;10210;52.284;9.892;2024-01-10T03:36:12;22.13;;;9.40;;
20101;SDS011;10210;52.284;9.892;2024-01-10T03:38:41;22.10;;;9.10;;
20101;SDS011;10210;52.284;9.892;2024-01-10T03:41:07;22.27;;;9.67;;
20101;SDS011;10210;52.284;9.892;2024-01-10T03:43:38;24.30;;;9.07;;
20101;SDS011;10210;52.284;9.892;2024-01-10T03:46:03;21.63;;;9.37;;
20101;SDS011;10210;52.284;9.892;2024-01-10T03:48:30;22.37;;;8.10;;
20101;SDS011;10210;52.284;9.892;2024-01-10T03:50:56;22.40;;;9.67;;
20101;SDS011;10210;52.284;9.892;2024-01-10T03:53:22;24.30;;;10.20;;
20101;SDS011;10210;52.284;9.892;2024-01-10T03:55:48;25.77;;;9.83;;
20101;SDS011;10210;52.284;9.892;2024-01-10T03:58:13;28.00;;;11.17;;
20101;SDS011;10210;52.284;9.892;2024-01-10T04:00:39;24.53;;;10.37;;
20101;SDS011;10210;52.284;9.892;2024-01-10T04:03:04;24.70;;;10.70;;
20101;SDS011;10210;52.284;9.892;2024-01-10T04:05:30;24.77;;;10.10;;
20101;SDS011;10210;52.284;9.892;2024-01-10T04:07:56;22.57;;;9.27;;
20101;SDS011;10210;52.284;9.892;2024-01-10T04:10:22;24.30;;;10.10;;
20101;SDS011;10210;52.284;9.892;2024-01-10T04:12:48;24.03;;;9.40;;
20101;SDS011;10210;52.284;9.892;2024-01-10T04:15:14;21.90;;;9.50;;
20101;SDS011;10210;52.284;9.892;2024-01-10T04:17:42;24.40;;;9.60;;
20101;SDS011;10210;52.284;9.892;2024-01-10T04:20:08;25.30;;;9.70;;
20101;SDS011;10210;52.284;9.892;2024-01-10T04:22:35;21.87;;;9.73;;
20101;SDS011;10210;52.284;9.892;2024-01-10T04:25:01;23.23;;;9.73;;
20101;SDS011;10210;52.284;9.892;2024-01-10T04:27:31;22.80;;;9.60;;
20101;SDS011;10210;52.284;9.892;2024-01-10T04:29:56;23.77;;;9.87;;
20101;SDS011;10210;52.284;9.892;2024-01-10T04:32:22;25.23;;;10.77;;
20101;SDS011;10210;52.284;9.892;2024-01-10T04:34:48;28.23;;;10.97;;
20101;SDS011;10210;52.284;9.892;2024-01-10T04:37:14;24.87;;;9.80;;
20101;SDS011;10210;52.284;9.892;2024-01-10T04:39:40;22.80;;;9.33;;
20101;SDS011;10210;52.284;9.892;2024-01-10T04:42:07;23.90;;;9.57;;
20101;SDS011;10210;52.284;9.892;2024-01-10T04:44:35;26.87;;;10.87;;
20101;SDS011;10210;52.284;9.892;2024-01-10T04:47:02;24.37;;;10.13;;
20101;SDS011;10210;52.284;9.892;2024-01-10T04:49:28;24.33;;;10.17;;
20101;SDS011;10210;52.284;9.892;2024-01-10T04:51:54;29.97;;;12.27;;
20101;SDS011;10210;52.284;9.892;2024-01-10T04:54:20;32.07;;;12.43;;
20101;SDS011;10210;52.284;9.892;2024-01-10T04:56:45;31.60;;;12.40;;
20101;SDS011;10210;52.284;9.892;2024-01-10T04:59:11;28.67;;;11.70;;
20101;SDS011;10210;52.284;9.892;2024-01-10T05:01:37;28.60;;;12.83;;
20101;SDS011;10210;52.284;9.892;2024-01-10T05:04:03;36.97;;;14.30;;
20101;SDS011;10210;52.284;9.892;2024-01-10T05:06:29;27.33;;;11.90;;
20101;SDS011;10210;52.284;9.892;2024-01-10T05:08:54;28.70;;;12.00;;
20101;SDS011;10210;52.284;9.892;2024-01-10T05:11:23;33.87;;;13.07;;
20101;SDS011;10210;52.284;9.892;2024-01-10T05:13:53;31.27;;;13.83;;
20101;SDS011;10210;52.284;9.892;2024-01-10T05:16:18;30.87;;;12.77;;
20101;SDS011;10210;52.284;9.892;2024-01-10T05:18:45;30.67;;;12.40;;
20101;SDS011;10210;52.284;9.892;2024-01-10T05:21:11;30.30;;;13.47;;
20101;SDS011;10210;52.284;9.892;2024-01-10T05:23:37;29.03;;;13.13;;
20101;SDS011;10210;52.284;9.892;2024-01-10T05:26:04;28.53;;;12.47;;
20101;SDS011;10210;52.284;9.892;2024-01-10T05:28:30;28.60;;;12.73;;
20101;SDS011;10210;52.284;9.892;2024-01-10T05:30:56;29.40;;;12.57;;
20101;SDS011;10210;52.284;9.892;2024-01-10T05:33:23;29.33;;;12.17;;
20101;SDS011;10210;52.284;9.892;2024-01-10T05:35:48;26.40;;;11.47;;
20101;SDS011;10210;52.284;9.892;2024-01-10T05:38:28;27.17;;;11.90;;
20101;SDS011;10210;52.284;9.892;2024-01-10T05:40:54;26.87;;;11.40;;
20101;SDS011;10210;52.284;9.892;2024-01-10T05:43:20;28.43;;;11.57;;
20101;SDS011;10210;52.284;9.892;2024-01-10T05:45:46;31.40;;;12.03;;
20101;SDS011;10210;52.284;9.892;2024-01-10T05:48:12;29.17;;;12.33;;
20101;SDS011;10210;52.284;9.892;2024-01-10T05:50:38;28.07;;;11.83;;
20101;SDS011;10210;52.284;9.892;2024-01-10T05:53:04;28.13;;;11.13;;
20101;SDS011;10210;52.284;9.892;2024-01-10T05:55:37;27.93;;;11.30;;
20101;SDS011;10210;52.284;9.892;2024-01-10T05:58:05;28.23;;;11.30;;
20101;SDS011;10210;52.284;9.892;2024-01-10T06:00:31;29.83;;;12.30;;
20101;SDS011;10210;52.284;9.892;2024-01-10T06:02:57;28.50;;;12.33;;
20101;SDS011;10210;52.284;9.892;2024-01-10T06:05:22;29.27;;;11.90;;
20101;SDS011;10210;52.284;9.892;2024-01-10T06:07:48;29.33;;;11.73;;
20101;SDS011;10210;52.284;9.892;2024-01-10T06:10:14;27.03;;;11.40;;
20101;SDS011;10210;52.284;9.892;2024-01-10T06:12:40;27.97;;;12.17;;
20101;SDS011;10210;52.284;9.892;2024-01-10T06:15:10;31.83;;;12.77;;
20101;SDS011;10210;52.284;9.892;2024-01-10T06:17:36;27.20;;;11.30;;
20101;SDS011;10210;52.284;9.892;2024-01-10T06:20:02;30.03;;;12.07;;
20101;SDS011;10210;52.284;9.892;2024-01-10T06:22:29;28.57;;;12.13;;
20101;SDS011;10210;52.284;9.892;2024-01-10T06:24:55;29.83;;;11.97;;
20101;SDS011;10210;52.284;9.892;2024-01-10T06:27:20;29.17;;;11.90;;
20101;SDS011;10210;52.284;9.892;2024-01-10T06:29:46;27.77;;;12.03;;
20101;SDS011;10210;52.284;9.892;2024-01-10T06:32:12;29.67;;;12.33;;
20101;SDS011;10210;52.284;9.892;2024-01-10T06:34:39;31.35;;;14.00;;
20101;SDS011;10210;52.284;9.892;2024-01-10T06:37:05;29.53;;;12.90;;
20101;SDS011;10210;52.284;9.892;2024-01-10T06:39:32;29.60;;;13.57;;
20101;SDS011;10210;52.284;9.892;2024-01-10T06:41:58;28.23;;;12.43;;
20101;SDS011;10210;52.284;9.892;2024-01-10T06:44:24;29.13;;;12.63;;
20101;SDS011;10210;52.284;9.892;2024-01-10T06:46:50;29.33;;;11.70;;
20101;SDS011;10210;52.284;9.892;2024-01-10T06:49:16;32.90;;;13.67;;
20101;SDS011;10210;52.284;9.892;2024-01-10T06:51:42;28.40;;;12.53;;
20101;SDS011;10210;52.284;9.892;2024-01-10T06:54:07;31.33;;;12.80;;
20101;SDS011;10210;52.284;9.892;2024-01-10T06:56:33;30.10;;;11.90;;
20101;SDS011;10210;52.284;9.892;2024-01-10T06:59:00;32.73;;;13.20;;
20101;SDS011;10210;52.284;9.892;2024-01-10T07:01:27;32.50;;;14.20;;
20101;SDS011;10210;52.284;9.892;2024-01-10T07:03:53;32.17;;;14.17;;
20101;SDS011;10210;52.284;9.892;2024-01-10T07:06:19;34.97;;;14.90;;
20101;SDS011;10210;52.284;9.892;2024-01-10T07:08:47;34.30;;;14.53;;
20101;SDS011;10210;52.284;9.892;2024-01-10T07:11:14;35.97;;;14.23;;
20101;SDS011;10210;52.284;9.892;2024-01-10T07:13:41;33.30;;;13.10;;
20101;SDS011;10210;52.284;9.892;2024-01-10T07:16:08;34.23;;;14.23;;
20101;SDS011;10210;52.284;9.892;2024-01-10T07:18:34;31.50;;;13.90;;
20101;SDS011;10210;52.284;9.892;2024-01-10T07:21:00;35.50;;;14.53;;
20101;SDS011;10210;52.284;9.892;2024-01-10T07:23:26;33.53;;;14.00;;
20101;SDS011;10210;52.284;9.892;2024-01-10T07:25:52;32.83;;;14.40;;
20101;SDS011;10210;52.284;9.892;2024-01-10T07:28:18;33.13;;;13.90;;
20101;SDS011;10210;52.284;9.892;2024-01-10T07:30:45;33.87;;;13.97;;
20101;SDS011;10210;52.284;9.892;2024-01-10T07:33:11;30.13;;;13.23;;
20101;SDS011;10210;52.284;9.892;2024-01-10T07:35:37;37.33;;;14.80;;
20101;SDS011;10210;52.284;9.892;2024-01-10T07:38:04;33.87;;;14.47;;
20101;SDS011;10210;52.284;9.892;2024-01-10T07:40:36;30.80;;;13.53;;
20101;SDS011;10210;52.284;9.892;2024-01-10T07:43:02;35.70;;;15.13;;
20101;SDS011;10210;52.284;9.892;2024-01-10T07:45:28;37.10;;;15.40;;
20101;SDS011;10210;52.284;9.892;2024-01-10T07:47:54;36.33;;;15.70;;
20101;SDS011;10210;52.284;9.892;2024-01-10T07:50:19;34.80;;;14.83;;
20101;SDS011;10210;52.284;9.892;2024-01-10T07:52:46;37.97;;;15.07;;
20101;SDS011;10210;52.284;9.892;2024-01-10T07:55:12;35.60;;;14.77;;
20101;SDS011;10210;52.284;9.892;2024-01-10T07:57:38;33.80;;;14.43;;
20101;SDS011;10210;52.284;9.892;2024-01-10T08:00:04;33.73;;;14.23;;
20101;SDS011;10210;52.284;9.892;2024-01-10T08:02:34;35.07;;;14.90;;
20101;SDS011;10210;52.284;9.892;2024-01-10T08:05:03;35.13;;;15.23;;
20101;SDS011;10210;52.284;9.892;2024-01-10T08:07:30;33.00;;;14.37;;
20101;SDS011;10210;52.284;9.892;2024-01-10T08:10:02;33.50;;;14.40;;
20101;SDS011;10210;52.284;9.892;2024-01-10T08:12:33;35.90;;;15.80;;
20101;SDS011;10210;52.284;9.892;2024-01-10T08:14:59;35.57;;;15.50;;
20101;SDS011;10210;52.284;9.892;2024-01-10T08:17:25;33.63;;;14.80;;
20101;SDS011;10210;52.284;9.892;2024-01-10T08:19:52;33.23;;;13.93;;
20101;SDS011;10210;52.284;9.892;2024-01-10T08:22:18;35.23;;;15.27;;
20101;SDS011;10210;52.284;9.892;2024-01-10T08:24:47;34.20;;;15.83;;
20101;SDS011;10210;52.284;9.892;2024-01-10T08:27:13;35.23;;;15.10;;
20101;SDS011;10210;52.284;9.892;2024-01-10T08:29:39;35.60;;;15.47;;
20101;SDS011;10210;52.284;9.892;2024-01-10T08:32:04;37.33;;;15.60;;
20101;SDS011;10210;52.284;9.892;2024-01-10T08:34:30;36.00;;;15.63;;
20101;SDS011;10210;52.284;9.892;2024-01-10T08:36:57;35.77;;;14.20;;
20101;SDS011;10210;52.284;9.892;2024-01-10T08:39:22;41.70;;;16.23;;
20101;SDS011;10210;52.284;9.892;2024-01-10T08:41:49;35.93;;;16.23;;
20101;SDS011;10210;52.284;9.892;2024-01-10T08:44:15;36.77;;;17.13;;
20101;SDS011;10210;52.284;9.892;2024-01-10T08:46:41;35.50;;;15.90;;
20101;SDS011;10210;52.284;9.892;2024-01-10T08:49:06;36.87;;;15.47;;
20101;SDS011;10210;52.284;9.892;2024-01-10T08:51:32;36.17;;;16.70;;
20101;SDS011;10210;52.284;9.892;2024-01-10T08:53:57;40.30;;;17.30;;
20101;SDS011;10210;52.284;9.892;2024-01-10T08:56:23;40.33;;;18.10;;
20101;SDS011;10210;52.284;9.892;2024-01-10T08:58:49;44.03;;;17.90;;
20101;SDS011;10210;52.284;9.892;2024-01-10T09:01:15;48.67;;;20.57;;
20101;SDS011;10210;52.284;9.892;2024-01-10T09:03:40;42.67;;;18.93;;
20101;SDS011;10210;52.284;9.892;2024-01-10T09:06:06;45.33;;;19.97;;
20101;SDS011;10210;52.284;9.892;2024-01-10T09:08:34;42.30;;;18.53;;
20101;SDS011;10210;52.284;9.892;2024-01-10T09:11:00;43.43;;;20.13;;
20101;SDS011;10210;52.284;9.892;2024-01-10T09:13:27;46.57;;;20.90;;
20101;SDS011;10210;52.284;9.892;2024-01-10T09:15:52;41.70;;;19.43;;
20101;SDS011;10210;52.284;9.892;2024-01-10T09:18:18;44.93;;;19.87;;
20101;SDS011;10210;52.284;9.892;2024-01-10T09:20:44;44.33;;;20.70;;
20101;SDS011;10210;52.284;9.892;2024-01-10T09:23:10;46.17;;;19.83;;
20101;SDS011;10210;52.284;9.892;2024-01-10T09:25:36;45.17;;;20.17;;
20101;SDS011;10210;52.284;9.892;2024-01-10T09:28:03;42.77;;;19.43;;
20101;SDS011;10210;52.284;9.892;2024-01-10T09:30:29;43.57;;;20.00;;
20101;SDS011;10210;52.284;9.892;2024-01-10T09:32:55;43.73;;;20.83;;
20101;SDS011;10210;52.284;9.892;2024-01-10T09:35:21;44.90;;;20.40;;
20101;SDS011;10210;52.284;9.892;2024-01-10T09:37:47;42.70;;;19.80;;
20101;SDS011;10210;52.284;9.892;2024-01-10T09:40:14;46.10;;;20.57;;
20101;SDS011;10210;52.284;9.892;2024-01-10T09:42:41;43.77;;;20.53;;
20101;SDS011;10210;52.284;9.892;2024-01-10T09:45:12;42.60;;;19.90;;
20101;SDS011;10210;52.284;9.892;2024-01-10T09:47:42;39.10;;;19.00;;
20101;SDS011;10210;52.284;9.892;2024-01-10T09:50:13;45.17;;;20.70;;
20101;SDS011;10210;52.284;9.892;2024-01-10T09:52:41;39.43;;;19.70;;
20101;SDS011;10210;52.284;9.892;2024-01-10T09:55:27;39.13;;;20.07;;
20101;SDS011;10210;52.284;9.892;2024-01-10T09:58:01;43.10;;;21.93;;
20101;SDS011;10210;52.284;9.892;2024-01-10T10:00:31;44.37;;;21.27;;
20101;SDS011;10210;52.284;9.892;2024-01-10T10:03:00;37.83;;;19.20;;
20101;SDS011;10210;52.284;9.892;2024-01-10T10:05:39;39.93;;;18.80;;
20101;SDS011;10210;52.284;9.892;2024-01-10T10:08:07;38.67;;;20.53;;
20101;SDS011;10210;52.284;9.892;2024-01-10T10:10:35;40.70;;;19.20;;
20101;SDS011;10210;52.284;9.892;2024-01-10T10:13:01;38.40;;;19.17;;
20101;SDS011;10210;52.284;9.892;2024-01-10T10:15:27;40.40;;;19.67;;
20101;SDS011;10210;52.284;9.892;2024-01-10T10:17:53;40.33;;;20.83;;
20101;SDS011;10210;52.284;9.892;2024-01-10T10:20:32;41.27;;;19.57;;
20101;SDS011;10210;52.284;9.892;2024-01-10T10:23:04;44.43;;;21.67;;
20101;SDS011;10210;52.284;9.892;2024-01-10T10:25:43;39.40;;;19.73;;
20101;SDS011;10210;52.284;9.892;2024-01-10T10:28:12;41.57;;;20.23;;
20101;SDS011;10210;52.284;9.892;2024-01-10T10:30:38;42.00;;;20.03;;
20101;SDS011;10210;52.284;9.892;2024-01-10T10:33:04;40.63;;;19.57;;
20101;SDS011;10210;52.284;9.892;2024-01-10T10:35:33;43.37;;;21.83;;
20101;SDS011;10210;52.284;9.892;2024-01-10T10:37:59;39.60;;;19.70;;
20101;SDS011;10210;52.284;9.892;2024-01-10T10:40:25;42.13;;;20.57;;
20101;SDS011;10210;52.284;9.892;2024-01-10T10:42:57;42.73;;;20.00;;
20101;SDS011;10210;52.284;9.892;2024-01-10T10:45:24;49.00;;;23.07;;
20101;SDS011;10210;52.284;9.892;2024-01-10T10:47:59;42.13;;;21.30;;
20101;SDS011;10210;52.284;9.892;2024-01-10T10:50:33;45.00;;;21.10;;
20101;SDS011;10210;52.284;9.892;2024-01-10T10:53:02;46.50;;;21.73;;
20101;SDS011;10210;52.284;9.892;2024-01-10T10:55:29;53.97;;;25.50;;
20101;SDS011;10210;52.284;9.892;2024-01-10T10:57:55;45.67;;;22.97;;
20101;SDS011;10210;52.284;9.892;2024-01-10T11:00:23;54.37;;;29.43;;
20101;SDS011;10210;52.284;9.892;2024-01-10T11:02:55;49.93;;;26.57;;
20101;SDS011;10210;52.284;9.892;2024-01-10T11:05:24;45.33;;;23.27;;
20101;SDS011;10210;52.284;9.892;2024-01-10T11:07:53;47.23;;;23.10;;
20101;SDS011;10210;52.284;9.892;2024-01-10T11:10:29;46.30;;;22.97;;
20101;SDS011;10210;52.284;9.892;2024-01-10T11:16:21;46.20;;;22.57;;
20101;SDS011;10210;52.284;9.892;2024-01-10T11:22:22;48.90;;;23.63;;
20101;SDS011;10210;52.284;9.892;2024-01-10T11:25:30;44.13;;;20.70;;
20101;SDS011;10210;52.284;9.892;2024-01-10T11:27:57;46.83;;;23.97;;
20101;SDS011;10210;52.284;9.892;2024-01-10T11:30:34;48.67;;;23.30;;
20101;SDS011;10210;52.284;9.892;2024-01-10T11:33:20;47.10;;;22.47;;
20101;SDS011;10210;52.284;9.892;2024-01-10T11:38:41;41.97;;;20.50;;
20101;SDS011;10210;52.284;9.892;2024-01-10T11:41:19;45.70;;;21.30;;
20101;SDS011;10210;52.284;9.892;2024-01-10T11:49:16;44.27;;;20.50;;
20101;SDS011;10210;52.284;9.892;2024-01-10T11:54:34;45.73;;;22.50;;
20101;SDS011;10210;52.284;9.892;2024-01-10T11:57:08;45.07;;;21.57;;
20101;SDS011;10210;52.284;9.892;2024-01-10T11:59:46;44.70;;;21.70;;
20101;SDS011;10210;52.284;9.892;2024-01-10T12:02:17;44.63;;;21.67;;
20101;SDS011;10210;52.284;9.892;2024-01-10T12:04:45;44.67;;;21.53;;
20101;SDS011;10210;52.284;9.892;2024-01-10T12:07:13;47.03;;;21.93;;
20101;SDS011;10210;52.284;9.892;2024-01-10T12:09:40;48.57;;;22.93;;
20101;SDS011;10210;52.284;9.892;2024-01-10T12:12:07;47.90;;;21.83;;
20101;SDS011;10210;52.284;9.892;2024-01-10T12:14:33;44.00;;;21.17;;
20101;SDS011;10210;52.284;9.892;2024-01-10T12:16:59;45.57;;;21.70;;
20101;SDS011;10210;52.284;9.892;2024-01-10T12:19:26;43.47;;;21.00;;
20101;SDS011;10210;52.284;9.892;2024-01-10T12:21:52;48.03;;;22.00;;
20101;SDS011;10210;52.284;9.892;2024-01-10T12:24:18;44.83;;;20.40;;
20101;SDS011;10210;52.284;9.892;2024-01-10T12:26:45;45.43;;;21.87;;
20101;SDS011;10210;52.284;9.892;2024-01-10T12:29:16;44.20;;;21.13;;
20101;SDS011;10210;52.284;9.892;2024-01-10T12:31:47;42.97;;;22.00;;
20101;SDS011;10210;52.284;9.892;2024-01-10T12:34:13;46.37;;;21.93;;
20101;SDS011;10210;52.284;9.892;2024-01-10T12:36:40;44.40;;;21.30;;
20101;SDS011;10210;52.284;9.892;2024-01-10T12:39:07;40.50;;;20.73;;
20101;SDS011;10210;52.284;9.892;2024-01-10T12:41:33;43.73;;;20.50;;
20101;SDS011;10210;52.284;9.892;2024-01-10T12:44:00;45.13;;;22.73;;
20101;SDS011;10210;52.284;9.892;2024-01-10T12:46:30;47.13;;;23.13;;
20101;SDS011;10210;52.284;9.892;2024-01-10T12:49:03;41.57;;;20.97;;
20101;SDS011;10210;52.284;9.892;2024-01-10T12:51:31;43.67;;;21.47;;
20101;SDS011;10210;52.284;9.892;2024-01-10T12:54:01;45.03;;;21.10;;
20101;SDS011;10210;52.284;9.892;2024-01-10T12:56:31;44.63;;;21.33;;
20101;SDS011;10210;52.284;9.892;2024-01-10T12:58:58;47.27;;;21.53;;
20101;SDS011;10210;52.284;9.892;2024-01-10T13:01:24;43.30;;;22.33;;
20101;SDS011;10210;52.284;9.892;2024-01-10T13:03:51;44.17;;;21.00;;
20101;SDS011;10210;52.284;9.892;2024-01-10T13:06:17;47.03;;;21.43;;
20101;SDS011;10210;52.284;9.892;2024-01-10T13:08:47;43.73;;;21.70;;
20101;SDS011;10210;52.284;9.892;2024-01-10T13:11:13;42.13;;;19.53;;
20101;SDS011;10210;52.284;9.892;2024-01-10T13:13:40;44.47;;;21.30;;
20101;SDS011;10210;52.284;9.892;2024-01-10T13:16:08;39.57;;;19.90;;
20101;SDS011;10210;52.284;9.892;2024-01-10T13:18:35;39.63;;;19.80;;
20101;SDS011;10210;52.284;9.892;2024-01-10T13:21:02;40.87;;;21.80;;
20101;SDS011;10210;52.284;9.892;2024-01-10T13:23:28;42.27;;;20.67;;
20101;SDS011;10210;52.284;9.892;2024-01-10T13:25:54;41.40;;;20.03;;
20101;SDS011;10210;52.284;9.892;2024-01-10T13:28:19;43.97;;;21.13;;
20101;SDS011;10210;52.284;9.892;2024-01-10T13:30:45;43.53;;;20.50;;
20101;SDS011;10210;52.284;9.892;2024-01-10T13:33:11;39.97;;;20.17;;
20101;SDS011;10210;52.284;9.892;2024-01-10T13:35:37;44.40;;;20.40;;
20101;SDS011;10210;52.284;9.892;2024-01-10T13:38:03;42.17;;;21.07;;
20101;SDS011;10210;52.284;9.892;2024-01-10T13:40:30;42.57;;;20.37;;
20101;SDS011;10210;52.284;9.892;2024-01-10T13:42:59;37.57;;;18.83;;
20101;SDS011;10210;52.284;9.892;2024-01-10T13:45:27;41.83;;;20.37;;
20101;SDS011;10210;52.284;9.892;2024-01-10T13:47:54;39.13;;;19.83;;
20101;SDS011;10210;52.284;9.892;2024-01-10T13:50:19;43.33;;;21.60;;
20101;SDS011;10210;52.284;9.892;2024-01-10T13:52:45;42.97;;;21.07;;
20101;SDS011;10210;52.284;9.892;2024-01-10T13:55:11;43.07;;;19.27;;
20101;SDS011;10210;52.284;9.892;2024-01-10T13:57:36;38.73;;;20.10;;
20101;SDS011;10210;52.284;9.892;2024-01-10T14:00:02;42.37;;;20.27;;
20101;SDS011;10210;52.284;9.892;2024-01-10T14:02:31;40.43;;;19.77;;
20101;SDS011;10210;52.284;9.892;2024-01-10T14:05:00;38.53;;;18.97;;
20101;SDS011;10210;52.284;9.892;2024-01-10T14:07:30;44.43;;;21.23;;
20101;SDS011;10210;52.284;9.892;2024-01-10T14:10:00;42.47;;;20.03;;
20101;SDS011;10210;52.284;9.892;2024-01-10T14:12:27;38.97;;;18.97;;
20101;SDS011;10210;52.284;9.892;2024-01-10T14:14:54;40.30;;;20.40;;
20101;SDS011;10210;52.284;9.892;2024-01-10T14:17:20;45.37;;;20.17;;
20101;SDS011;10210;52.284;9.892;2024-01-10T14:19:47;47.47;;;27.05;;
20101;SDS011;10210;52.284;9.892;2024-01-10T14:22:15;43.10;;;21.63;;
20101;SDS011;10210;52.284;9.892;2024-01-10T14:24:42;38.60;;;20.10;;
20101;SDS011;10210;52.284;9.892;2024-01-10T14:27:08;40.77;;;19.77;;
20101;SDS011;10210;52.284;9.892;2024-01-10T14:29:34;43.13;;;20.70;;
20101;SDS011;10210;52.284;9.892;2024-01-10T14:32:00;38.80;;;19.03;;
20101;SDS011;10210;52.284;9.892;2024-01-10T14:34:25;41.80;;;19.87;;
20101;SDS011;10210;52.284;9.892;2024-01-10T14:36:51;42.20;;;19.17;;
20101;SDS011;10210;52.284;9.892;2024-01-10T14:39:16;44.87;;;20.60;;
20101;SDS011;10210;52.284;9.892;2024-01-10T14:41:43;43.43;;;20.33;;
20101;SDS011;10210;52.284;9.892;2024-01-10T14:44:10;44.00;;;20.53;;